New Leo — D5IU7 — position and weather

sailwx.info

Track history (hours):
 
Tides and Currents Weather Stations Pressure Air Temp Water Temp Dewpoint Dewpoint Depression Visibility Wind Speed Wind Dir Waves Ship Positions

New Leo

Last reported at 2019-Jan-23 02:48 UTC. Time now 2019-Jan-23 22:38 UTC.
Position N 46°23' E 030°56'.

Length 103 m; draft 6.5 m.

Type: Cargo ship. MMSI: 636016994.

Date/timePositionNaut miles runAvg speedWind from/ knotsBaromVisibWave heightAir tempDewpointWater temp
2019-Jan-23 02:48N 46°23' E 030°56'3 8.6
2019-Jan-23 02:30N 46°26' E 030°55'5 9.9
2019-Jan-23 02:01N 46°31' E 030°55'5 9.3
2019-Jan-23 01:31N 46°34' E 031°00'2 0.1
2019-Jan-22 02:54N 46°36' E 031°01'3 8.6
2019-Jan-22 02:30N 46°33' E 030°58'2 4.7
2019-Jan-22 02:00N 46°31' E 030°57'2 4.2
2019-Jan-22 01:30N 46°29' E 030°57'1 2.6
2019-Jan-22 01:00N 46°27' E 030°57'1 2.6
2019-Jan-22 00:29N 46°26' E 030°57'3 7.1
2019-Jan-22 00:00N 46°23' E 030°57'  
2019-Jan-17 20:45N 46°22' E 030°55'210.3
2019-Jan-17 20:30N 46°25' E 030°55'510.3
2019-Jan-17 20:00N 46°30' E 030°55'4 8.5
2019-Jan-17 19:31N 46°33' E 030°59'2 0.1
2019-Jan-16 20:23N 46°35' E 031°01'3 8.4
2019-Jan-16 20:00N 46°33' E 030°58'2 3.6
2019-Jan-16 19:30N 46°31' E 030°57'2 4.9
2019-Jan-16 19:00N 46°28' E 030°57'5 9.5
2019-Jan-16 18:30N 46°24' E 030°57'  
Track history (hours):
 
Tides and Currents Weather Stations Pressure Air Temp Water Temp Dewpoint Dewpoint Depression Visibility Wind Speed Wind Dir Waves Ship Positions

New Leo

Last reported at 2019-Jan-23 02:48 UTC. Time now 2019-Jan-23 22:38 UTC.
Position N 46°23' E 030°56'.

Length 103 m; draft 6.5 m.

Type: Cargo ship. MMSI: 636016994.

Date/timePositionNaut miles runAvg speedWind from/ knotsBaromVisibWave heightAir tempDewpointWater temp
2019-Jan-23 02:48N 46°23' E 030°56'3 8.6
2019-Jan-23 02:30N 46°26' E 030°55'5 9.9
2019-Jan-23 02:01N 46°31' E 030°55'5 9.3
2019-Jan-23 01:31N 46°34' E 031°00'2 0.1
2019-Jan-22 02:54N 46°36' E 031°01'3 8.6
2019-Jan-22 02:30N 46°33' E 030°58'2 4.7
2019-Jan-22 02:00N 46°31' E 030°57'2 4.2
2019-Jan-22 01:30N 46°29' E 030°57'1 2.6
2019-Jan-22 01:00N 46°27' E 030°57'1 2.6
2019-Jan-22 00:29N 46°26' E 030°57'3 7.1
2019-Jan-22 00:00N 46°23' E 030°57'  
2019-Jan-17 20:45N 46°22' E 030°55'210.3
2019-Jan-17 20:30N 46°25' E 030°55'510.3
2019-Jan-17 20:00N 46°30' E 030°55'4 8.5
2019-Jan-17 19:31N 46°33' E 030°59'2 0.1
2019-Jan-16 20:23N 46°35' E 031°01'3 8.4
2019-Jan-16 20:00N 46°33' E 030°58'2 3.6
2019-Jan-16 19:30N 46°31' E 030°57'2 4.9
2019-Jan-16 19:00N 46°28' E 030°57'5 9.5
2019-Jan-16 18:30N 46°24' E 030°57'  

Dump ship's entire track history